KBKD

Stephens County Airport

Breckenridge, Texas, USA
METAR KBKD 151315Z AUTO 33003KT 10SM CLR 01/M03 A3034 RMK AO2 T00051034
Observed Flight Rules
Dec-15 @ 13:15 UTC (27 minutes ago) Visual Flight Rules
Wind Visibility Clouds
330° at 3 knots 10 miles
  • Clear skies
Temperatures Readings
Current 1°C / 34°F
Dewpoint -3°C / 27°F
Humidity 75%
Altimeter 30.34" Hg
Pressure 1027 hPa
Elevation 392
METAR KBKD 151315Z AUTO 33003KT 10SM CLR 01/M03 A3034 RMK AO2 T00051034
Observed Flight Rules
Dec-15 @ 13:15 UTC
(27 minutes ago)
VFR
Wind Visibility
330° at 3 knots 10 miles
Clouds
  • Clear skies
Temperature Dewpoint
1°C / 34°F -3°C / 27°F
Humidity Altimeter Pressure
75% 30.34" Hg 1027 hPa